< < Back
Terminal Aerodrome Forecast


Current Version              Previous Versions:   1  2  3  4  5  6  7  8  9  

Terminal Aerodrome Forecast

462
FTUS42 KFFC 270157 AAA
TAFPDK
TAF AMD
KPDK 270157Z 2702/2724 21010KT P6SM FEW070
     FM270300 21003KT P6SM SKC
     FM271500 23004KT P6SM SCT040
     FM271800 23008KT P6SM SCT050 PROB30 2719/2723 5SM TSRA
      BKN035CB=



Latest METAR

440
SAUS70 KWBC 270900
MTRPDK
METAR KPDK 270853Z AUTO 23008KT 10SM CLR 24/22 A3003 RMK AO2 SLP147
T02440217 56011


USA.gov is the U.S. government's official web portal to all federal, state and local government web resources and services.